createdAt,value
2019-01-18T00:00:45.711Z,-6.1
2019-01-18T00:01:36.041Z,-6.1
2019-01-18T00:02:24.991Z,-6.1
2019-01-18T00:03:31.145Z,-6.2
2019-01-18T00:04:06.198Z,-6.3
2019-01-18T00:04:56.263Z,-6.2
2019-01-18T00:05:46.311Z,-6
2019-01-18T00:06:36.388Z,-5.9
2019-01-18T00:07:26.426Z,-6.1
2019-01-18T00:08:16.508Z,-6.1
2019-01-18T00:09:06.001Z,-6.1
2019-01-18T00:09:56.601Z,-6.2
2019-01-18T00:10:46.103Z,-6.1
2019-01-18T00:11:36.440Z,-6.1
2019-01-18T00:12:26.786Z,-6.1
2019-01-18T00:13:16.828Z,-6.1
2019-01-18T00:14:07.170Z,-6.1
2019-01-18T00:14:57.223Z,-6.1
2019-01-18T00:15:47.293Z,-6.1
2019-01-18T00:16:36.512Z,-5.9
2019-01-18T00:17:27.112Z,-5.8
2019-01-18T00:18:16.625Z,-5.8
2019-01-18T00:19:06.680Z,-5.6
2019-01-18T00:19:57.615Z,-5.8
2019-01-18T00:20:47.070Z,-5.8
2019-01-18T00:21:37.439Z,-5.8
2019-01-18T00:22:27.737Z,-5.8
2019-01-18T00:23:17.799Z,-5.6
2019-01-18T00:24:07.850Z,-5.6
2019-01-18T00:24:57.914Z,-5.6
2019-01-18T00:25:47.695Z,-5.6
2019-01-18T00:26:38.036Z,-5.9
2019-01-18T00:27:28.077Z,-5.9
2019-01-18T00:28:18.196Z,-5.9
2019-01-18T00:29:07.927Z,-6
2019-01-18T00:29:57.974Z,-5.9
2019-01-18T00:30:47.767Z,-5.9
2019-01-18T00:31:37.811Z,-5.8
2019-01-18T00:32:28.141Z,-5.8
2019-01-18T00:33:18.482Z,-5.8
2019-01-18T00:34:08.259Z,-5.8
2019-01-18T00:34:58.345Z,-5.6
2019-01-18T00:35:48.377Z,-5.5
2019-01-18T00:36:38.159Z,-5.5
2019-01-18T00:37:28.492Z,-5.5
2019-01-18T00:38:18.531Z,-5.6
2019-01-18T00:39:08.879Z,-5.5
2019-01-18T00:39:58.386Z,-5.4
2019-01-18T00:40:48.718Z,-5.4
2019-01-18T03:08:41.453Z,-7.4
2019-01-18T03:09:30.952Z,-7.6
2019-01-18T03:10:21.554Z,-7.6
2019-01-18T03:11:11.970Z,-7.7
2019-01-18T03:12:01.402Z,-7.6
2019-01-18T03:12:52.014Z,-7.8
2019-01-18T03:13:42.034Z,-7.8
2019-01-18T03:14:32.102Z,-7.8
2019-01-18T03:15:22.176Z,-7.8
2019-01-18T03:16:11.659Z,-7.8
2019-01-18T03:17:01.478Z,-7.8
2019-01-18T03:17:52.362Z,-7.8
2019-01-18T03:18:42.452Z,-7.8
2019-01-18T03:19:32.529Z,-7.8
2019-01-18T03:20:22.491Z,-7.8
2019-01-18T03:21:12.291Z,-7.8
2019-01-18T03:22:17.271Z,-7.8
2019-01-18T03:22:52.462Z,-7.8
2019-01-18T03:23:42.466Z,-7.9
2019-01-18T03:24:32.569Z,-7.9
2019-01-18T03:25:22.329Z,-7.9
2019-01-18T03:26:12.361Z,-7.9
2019-01-18T03:27:02.956Z,-7.8
2019-01-18T03:27:53.034Z,-7.8
2019-01-18T03:28:42.792Z,-7.8
2019-01-18T03:29:33.128Z,-7.8
2019-01-18T03:30:24.043Z,-7.8
2019-01-18T03:31:13.333Z,-7.8
2019-01-18T03:32:03.364Z,-7.8
2019-01-18T03:32:53.569Z,-7.8
2019-01-18T03:33:42.885Z,-7.8
2019-01-18T03:34:33.476Z,-7.9
2019-01-18T03:35:23.508Z,-7.9
2019-01-18T03:36:13.313Z,-7.9
2019-01-18T03:37:03.692Z,-7.8
2019-01-18T03:37:53.727Z,-7.7
2019-01-18T03:38:43.770Z,-7.7
2019-01-18T03:39:33.822Z,-7.6
2019-01-18T03:40:23.623Z,-7.6
2019-01-18T03:41:12.911Z,-7.6
2019-01-18T03:42:03.226Z,-7.6
2019-01-18T03:42:53.604Z,-7.6
2019-01-18T03:43:43.682Z,-7.6
2019-01-18T03:44:33.673Z,-7.7
2019-01-18T03:45:22.929Z,-7.8
2019-01-18T03:46:13.795Z,-7.9
2019-01-18T03:47:03.847Z,-7.9
2019-01-18T03:47:53.350Z,-8
2019-01-18T03:48:43.392Z,-8
2019-01-18T03:49:34.506Z,-8
2019-01-18T03:50:24.310Z,-7.9
2019-01-18T03:51:14.049Z,-7.9
2019-01-18T03:52:04.388Z,-7.8
2019-01-18T03:52:54.476Z,-7.8
2019-01-18T03:53:44.744Z,-7.7
2019-01-18T03:54:34.834Z,-7.6
2019-01-18T03:55:24.353Z,-7.6
2019-01-18T03:56:14.686Z,-7.6
2019-01-18T03:57:04.479Z,-7.6
2019-01-18T03:57:54.505Z,-7.6
2019-01-18T03:58:44.858Z,-7.7
2019-01-18T03:59:34.696Z,-7.7
2019-01-18T04:00:29.098Z,-7.7
2019-01-18T04:01:15.021Z,-7.8
2019-01-18T04:02:04.843Z,-7.8
2019-01-18T04:02:55.442Z,-7.7
2019-01-18T04:03:44.701Z,-7.7
2019-01-18T04:04:35.040Z,-7.6
2019-01-18T04:05:25.335Z,-7.6
2019-01-18T04:06:15.635Z,-7.6
2019-01-18T04:07:05.688Z,-7.6
2019-01-18T04:07:55.486Z,-7.6
2019-01-18T04:08:45.875Z,-7.5
2019-01-18T04:09:35.863Z,-7.5
2019-01-18T04:10:25.663Z,-7.6
2019-01-18T04:11:15.698Z,-7.6
2019-01-18T04:12:05.465Z,-7.5
2019-01-18T04:12:55.553Z,-7.4
2019-01-18T04:13:45.398Z,-7.4
2019-01-18T04:14:35.435Z,-7.4
2019-01-18T04:15:25.253Z,-7.4
2019-01-18T04:16:15.560Z,-7.6
2019-01-18T04:17:05.894Z,-7.7
2019-01-18T04:17:55.761Z,-7.8
2019-01-18T04:18:46.028Z,-7.8
2019-01-18T04:19:36.249Z,-7.8
2019-01-18T04:20:26.325Z,-7.8
2019-01-18T04:21:16.671Z,-7.8
2019-01-18T04:22:06.742Z,-7.8
2019-01-18T04:22:56.490Z,-7.8
2019-01-18T04:23:46.835Z,-7.7
2019-01-18T04:24:36.877Z,-7.6
2019-01-18T04:25:27.000Z,-7.6
2019-01-18T04:26:16.988Z,-7.6
2019-01-18T04:27:07.040Z,-7.6
2019-01-18T04:27:57.118Z,-7.7
2019-01-18T04:28:47.203Z,-7.8
2019-01-18T04:29:36.394Z,-7.6
2019-01-18T04:30:35.354Z,-7.6
2019-01-18T04:31:17.352Z,-7.7
2019-01-18T04:32:07.109Z,-7.6
2019-01-18T04:32:57.207Z,-7.5
2019-01-18T04:33:47.257Z,-7.4
2019-01-18T04:34:37.562Z,-7.4
2019-01-18T04:35:27.622Z,-7.4
2019-01-18T04:36:17.434Z,-7.5
2019-01-18T04:37:07.721Z,-7.4
2019-01-18T04:37:57.505Z,-7.4
2019-01-18T04:38:47.596Z,-7.4
2019-01-18T04:39:37.347Z,-7.3
2019-01-18T04:40:27.977Z,-7.3
2019-01-18T04:41:18.046Z,-7.4
2019-01-18T04:42:07.529Z,-7.4
2019-01-18T04:42:57.585Z,-7.4
2019-01-18T04:43:48.198Z,-7.4
2019-01-18T04:44:38.245Z,-7.6
2019-01-18T04:45:27.463Z,-7.6
2019-01-18T04:46:17.815Z,-7.8
2019-01-18T04:47:07.609Z,-7.8
2019-01-18T04:47:58.453Z,-7.5
2019-01-18T04:48:47.972Z,-7.5
2019-01-18T04:49:38.078Z,-7.5
2019-01-18T04:50:28.655Z,-7.6
2019-01-18T04:51:18.410Z,-7.6
2019-01-18T04:52:08.758Z,-7.8
2019-01-18T04:52:58.540Z,-7.8
2019-01-18T04:53:48.585Z,-7.8
2019-01-18T04:54:38.365Z,-7.8
2019-01-18T04:55:43.630Z,-7.8
2019-01-18T04:56:18.467Z,-7.8
2019-01-18T04:57:09.073Z,-7.8
2019-01-18T04:57:58.586Z,-7.9
2019-01-18T04:58:48.658Z,-7.9
2019-01-18T04:59:39.263Z,-7.9
2019-01-18T05:00:29.329Z,-7.9
2019-01-18T05:01:19.377Z,-7.9
2019-01-18T05:02:08.880Z,-8.1
2019-01-18T05:02:59.498Z,-8.1
2019-01-18T05:03:49.550Z,-8.3
2019-01-18T05:04:39.619Z,-8.3
2019-01-18T05:05:29.109Z,-8.3
2019-01-18T05:06:18.887Z,-8.4
2019-01-18T05:07:09.767Z,-8.5
2019-01-18T05:07:59.272Z,-8.5
2019-01-18T05:08:49.629Z,-8.6
2019-01-18T05:09:39.665Z,-8.6
2019-01-18T05:10:29.712Z,-8.5
2019-01-18T05:11:20.036Z,-8.5
2019-01-18T05:12:09.553Z,-8.4
2019-01-18T05:13:00.166Z,-8.4
2019-01-18T05:13:49.981Z,-8.5
2019-01-18T05:14:40.266Z,-8.5
2019-01-18T05:15:30.114Z,-8.4
2019-01-18T05:16:20.386Z,-8.4
2019-01-18T05:17:10.157Z,-8.4
2019-01-18T05:18:00.569Z,-8.4
2019-01-18T05:18:50.582Z,-8.4
2019-01-18T05:19:42.119Z,-8.4
2019-01-18T05:20:30.425Z,-8.3
2019-01-18T05:21:20.196Z,-8.4
2019-01-18T05:22:10.206Z,-8.4
2019-01-18T05:23:00.568Z,-8.5
2019-01-18T05:23:50.612Z,-8.6
2019-01-18T05:24:40.380Z,-8.7
2019-01-18T05:25:30.749Z,-8.7
2019-01-18T05:26:20.793Z,-8.8
2019-01-18T05:27:10.838Z,-8.8
2019-01-18T05:28:00.913Z,-8.7
2019-01-18T05:28:51.248Z,-8.7
2019-01-18T05:29:40.519Z,-8.7
2019-01-18T05:30:31.068Z,-8.7
2019-01-18T05:31:21.395Z,-8.7
2019-01-18T05:32:10.903Z,-8.7
2019-01-18T05:33:01.536Z,-8.8
2019-01-18T05:33:51.559Z,-8.8
2019-01-18T05:34:41.367Z,-8.8
2019-01-18T05:35:31.706Z,-8.8
2019-01-18T05:36:21.768Z,-8.8
2019-01-18T05:37:11.516Z,-8.8
2019-01-18T05:38:01.848Z,-8.7
2019-01-18T05:38:51.920Z,-8.7
2019-01-18T05:39:41.949Z,-8.7
2019-01-18T05:40:31.735Z,-8.8
2019-01-18T05:41:21.788Z,-8.8
2019-01-18T05:42:11.840Z,-8.9
2019-01-18T05:43:02.195Z,-8.8
2019-01-18T05:43:51.952Z,-8.8
2019-01-18T05:44:43.275Z,-8.9
2019-01-18T05:45:32.339Z,-8.9
2019-01-18T05:46:21.881Z,-8.9
2019-01-18T05:47:12.466Z,-8.9
2019-01-18T05:48:02.241Z,-8.9
2019-01-18T05:48:52.593Z,-8.8
2019-01-18T05:49:42.387Z,-8.8
2019-01-18T05:50:32.131Z,-8.8
2019-01-18T05:51:22.727Z,-8.8
2019-01-18T05:52:12.592Z,-8.6
2019-01-18T05:53:02.585Z,-8.7
2019-01-18T05:53:53.144Z,-8.8
2019-01-18T05:54:42.692Z,-8.8
2019-01-18T05:55:33.036Z,-8.7
2019-01-18T05:56:22.802Z,-8.7
2019-01-18T05:57:12.911Z,-8.7
2019-01-18T05:58:02.631Z,-8.7
2019-01-18T05:58:52.964Z,-8.8
2019-01-18T05:59:43.031Z,-8.8
2019-01-18T06:00:33.097Z,-8.9
2019-01-18T06:01:23.274Z,-8.9
2019-01-18T06:02:12.917Z,-9
2019-01-18T06:03:03.534Z,-8.9
2019-01-18T06:03:53.359Z,-8.9
2019-01-18T06:04:43.629Z,-9
2019-01-18T06:06:41.586Z,-8.9
2019-01-18T06:07:31.398Z,-8.9
2019-01-18T06:08:21.782Z,-9
2019-01-18T06:09:11.511Z,-8.9
2019-01-18T06:10:01.822Z,-8.8
2019-01-18T06:10:51.859Z,-8.8
2019-01-18T06:11:41.901Z,-8.8
2019-01-18T06:12:31.708Z,-8.8
2019-01-18T06:13:22.048Z,-8.8
2019-01-18T06:14:11.531Z,-8.7
2019-01-18T06:15:01.654Z,-8.8
2019-01-18T06:15:51.981Z,-8.7
2019-01-18T06:16:42.251Z,-8.8
2019-01-18T06:17:32.313Z,-8.7
2019-01-18T06:18:22.099Z,-8.6
2019-01-18T06:19:12.425Z,-8.6
2019-01-18T06:20:02.640Z,-8.6
2019-01-18T06:20:52.515Z,-8.6
2019-01-18T06:21:42.585Z,-8.5
2019-01-18T06:22:32.655Z,-8.4
2019-01-18T06:23:22.710Z,-8.4
2019-01-18T06:24:12.205Z,-8.4
2019-01-18T06:25:02.915Z,-8.4
2019-01-18T06:25:52.607Z,-8.4
2019-01-18T06:26:42.939Z,-8.3
2019-01-18T06:27:32.491Z,-8.3
2019-01-18T06:28:22.489Z,-8.3
2019-01-18T06:29:13.070Z,-8.1
2019-01-18T06:30:03.185Z,-8
2019-01-18T06:30:53.217Z,-8.1
2019-01-18T06:31:43.262Z,-8.1
2019-01-18T06:32:33.025Z,-7.9
2019-01-18T06:33:23.390Z,-7.8
2019-01-18T06:34:13.198Z,-7.7
2019-01-18T06:35:03.537Z,-7.8
2019-01-18T06:35:53.021Z,-7.7
2019-01-18T06:36:42.633Z,-7.6
2019-01-18T06:37:33.166Z,-7.5
2019-01-18T06:38:23.699Z,-7.4
2019-01-18T06:39:13.766Z,-7.4
2019-01-18T06:40:03.819Z,-7.4
2019-01-18T06:40:53.869Z,-7.3
2019-01-18T06:41:43.929Z,-7.1
2019-01-18T06:42:33.731Z,-7.1
2019-01-18T06:43:24.046Z,-6.9
2019-01-18T06:44:14.101Z,-6.8
2019-01-18T06:45:03.893Z,-6.8
2019-01-18T06:45:54.209Z,-6.7
2019-01-18T06:46:43.526Z,-6.7
2019-01-18T06:47:34.068Z,-6.6
2019-01-18T06:48:24.414Z,-6.6
2019-01-18T06:49:14.168Z,-6.6
2019-01-18T06:50:04.228Z,-6.6
2019-01-18T06:50:54.536Z,-6.6
2019-01-18T06:51:44.623Z,-6.5
2019-01-18T06:52:34.383Z,-6.6
2019-01-18T06:53:24.711Z,-6.4
2019-01-18T06:54:14.773Z,-6.4
2019-01-18T06:55:04.850Z,-6.4
2019-01-18T06:55:54.888Z,-6.4
2019-01-18T06:56:44.675Z,-6.4
2019-01-18T06:57:34.728Z,-6.3
2019-01-18T06:58:25.055Z,-6.3
2019-01-18T06:59:14.825Z,-6.2
2019-01-18T07:00:04.973Z,-6.1
2019-01-18T07:00:55.232Z,-6.1
2019-01-18T07:01:44.730Z,-6
2019-01-18T07:02:35.057Z,-5.9
2019-01-18T07:03:25.119Z,-5.9
2019-01-18T07:04:15.175Z,-5.9
2019-01-18T07:06:40.989Z,-5.9
2019-01-18T07:07:31.572Z,-5.9
2019-01-18T07:08:21.360Z,-5.9
2019-01-18T07:09:11.695Z,-5.9
2019-01-18T07:10:01.759Z,-5.9
2019-01-18T07:10:51.244Z,-6.1
2019-01-18T07:11:41.304Z,-6
2019-01-18T07:12:31.642Z,-6
2019-01-18T07:13:21.702Z,-6.3
2019-01-18T07:14:11.745Z,-6.3
2019-01-18T07:15:02.208Z,-6.3
2019-01-18T07:15:52.129Z,-6.3
2019-01-18T07:16:41.636Z,-6.4
2019-01-18T07:17:31.426Z,-6.4
2019-01-18T07:18:23.366Z,-6.4
2019-01-18T07:19:12.359Z,-6.6
2019-01-18T07:20:02.422Z,-6.8
2019-01-18T07:20:52.207Z,-6.9
2019-01-18T07:21:42.543Z,-6.9
2019-01-18T07:22:32.308Z,-6.9
2019-01-18T07:23:22.366Z,-6.9
2019-01-18T07:24:12.704Z,-6.8
2019-01-18T07:25:02.521Z,-6.8
2019-01-18T07:25:52.813Z,-6.9
2019-01-18T07:26:42.615Z,-6.8
2019-01-18T07:27:32.771Z,-6.7
2019-01-18T07:28:22.988Z,-6.9
2019-01-18T07:29:13.068Z,-6.9
2019-01-18T07:30:03.131Z,-6.6
2019-01-18T07:30:52.870Z,-6.6
2019-01-18T07:31:42.671Z,-6.6
2019-01-18T07:32:32.750Z,-6.6
2019-01-18T07:33:23.345Z,-6.8
2019-01-18T07:34:13.390Z,-6.7
2019-01-18T07:35:03.458Z,-6.9
2019-01-18T07:35:53.485Z,-6.8
2019-01-18T07:36:43.286Z,-6.7
2019-01-18T07:37:33.132Z,-6.6
2019-01-18T07:38:23.102Z,-6.7
2019-01-18T07:39:13.447Z,-7
2019-01-18T07:40:03.807Z,-6.9
2019-01-18T07:40:53.557Z,-6.8
2019-01-18T07:41:43.662Z,-6.6
2019-01-18T07:42:33.973Z,-6.4
2019-01-18T07:43:24.028Z,-6.4
2019-01-18T07:44:14.129Z,-6.3
2019-01-18T07:45:04.158Z,-6.1
2019-01-18T07:45:53.369Z,-6.2
2019-01-18T07:46:44.005Z,-6
2019-01-18T07:47:34.312Z,-5.9
2019-01-18T07:48:24.377Z,-5.6
2019-01-18T07:49:14.437Z,-5.4
2019-01-18T07:50:04.249Z,-5.1
2019-01-18T07:50:53.977Z,-5.1
2019-01-18T07:51:44.367Z,-5.1
2019-01-18T07:52:34.650Z,-5
2019-01-18T07:53:24.707Z,-4.9
2019-01-18T07:54:14.207Z,-4.9
2019-01-18T07:55:04.264Z,-4.8
2019-01-18T07:55:54.594Z,-4.5
2019-01-18T07:56:44.936Z,-4.5
2019-01-18T07:57:34.726Z,-4.5
2019-01-18T07:58:24.766Z,-4.3
2019-01-18T07:59:14.816Z,-4.3
2019-01-18T08:00:05.184Z,-4.2
2019-01-18T08:00:55.216Z,-4
2019-01-18T08:01:45.281Z,-3.9
2019-01-18T08:02:35.066Z,-3.9
2019-01-18T08:03:25.136Z,-4.2
2019-01-18T08:04:14.908Z,-3.9
2019-01-18T08:05:05.259Z,-3.9
2019-01-18T08:05:55.283Z,-3.7
2019-01-18T08:06:45.342Z,-3.6
2019-01-18T08:07:35.684Z,-3.6
2019-01-18T08:08:25.738Z,-3.4
2019-01-18T08:09:15.782Z,-3.5
2019-01-18T08:10:05.556Z,-3.3
2019-01-18T08:10:55.916Z,-3.1
2019-01-18T08:11:45.458Z,-3
2019-01-18T08:12:36.014Z,-2.8
2019-01-18T08:13:26.071Z,-3
2019-01-18T08:14:16.138Z,-2.8
2019-01-18T08:15:06.198Z,-2.4
2019-01-18T08:15:56.248Z,-2.2
2019-01-18T08:16:46.005Z,-1.7
2019-01-18T08:17:36.368Z,-1.6
2019-01-18T08:18:25.855Z,-1.8
2019-01-18T08:19:16.470Z,-1.6
2019-01-18T08:20:06.523Z,-1.4
2019-01-18T08:20:56.312Z,-1.4
2019-01-18T08:21:46.646Z,-1.3
2019-01-18T08:22:36.433Z,-1.4
2019-01-18T08:23:26.477Z,-1.3
2019-01-18T08:24:16.812Z,-1.3
2019-01-18T08:25:06.337Z,-1.1
2019-01-18T08:25:56.375Z,-1.1
2019-01-18T08:26:47.037Z,-0.8
2019-01-18T08:27:36.774Z,-0.6
2019-01-18T08:28:27.095Z,-0.6
2019-01-18T08:29:16.897Z,-0.6
2019-01-18T08:30:07.222Z,-0.6
2019-01-18T08:30:57.270Z,-0.5
2019-01-18T08:31:47.327Z,-0.3
2019-01-18T08:32:37.137Z,-0.4
2019-01-18T08:33:26.892Z,-0.4
2019-01-18T08:34:16.747Z,-0.3
2019-01-18T08:35:07.571Z,-0.1
2019-01-18T08:35:57.134Z,-0.1
2019-01-18T08:36:47.395Z,0.1
2019-01-18T08:37:37.450Z,0.3
2019-01-18T08:38:27.539Z,0.3
2019-01-18T08:39:17.572Z,0.1
2019-01-18T08:40:07.623Z,-0.1
2019-01-18T08:40:57.976Z,0
2019-01-18T08:41:47.776Z,0.1
2019-01-18T08:42:37.806Z,0.4
2019-01-18T08:43:27.857Z,0.7
2019-01-18T08:44:18.192Z,0.8
2019-01-18T08:45:08.241Z,1.1
2019-01-18T08:45:57.741Z,0.9
2019-01-18T08:46:48.364Z,1
2019-01-18T08:47:38.143Z,1.1
2019-01-18T08:48:28.474Z,1.1
2019-01-18T08:49:18.550Z,1.1
2019-01-18T08:50:08.581Z,1
2019-01-18T08:50:58.623Z,1
2019-01-18T08:51:48.171Z,1.2
2019-01-18T08:52:38.763Z,1
2019-01-18T08:53:28.258Z,1.1
2019-01-18T08:54:18.865Z,1.2
2019-01-18T08:55:08.378Z,1.4
2019-01-18T08:55:58.693Z,1.5
2019-01-18T08:56:48.476Z,1.4
2019-01-18T08:57:39.098Z,1.2
2019-01-18T08:58:28.401Z,1.2
2019-01-18T08:59:18.701Z,1.2
2019-01-18T09:00:08.721Z,1.1
2019-01-18T09:00:58.210Z,1.1
2019-01-18T09:01:49.403Z,1
2019-01-18T09:02:39.160Z,0.9
2019-01-18T09:03:29.510Z,0.9
2019-01-18T09:04:18.725Z,0.8
2019-01-18T09:05:10.147Z,0.8
2019-01-18T09:05:59.390Z,0.8
2019-01-18T09:06:49.258Z,0.7
2019-01-18T09:07:38.947Z,0.5
2019-01-18T09:08:29.600Z,0.5
2019-01-18T09:09:19.387Z,0.6
2019-01-18T09:10:09.677Z,0.6
2019-01-18T09:10:59.455Z,0.5
2019-01-18T09:11:49.527Z,0.7
2019-01-18T09:12:40.122Z,0.6
2019-01-18T09:13:30.179Z,0.6
2019-01-18T09:14:22.222Z,0.5
2019-01-18T09:15:10.030Z,0.4
2019-01-18T09:15:59.511Z,0.4
2019-01-18T09:16:50.133Z,0.2
2019-01-18T09:17:40.209Z,0.1
2019-01-18T09:18:30.519Z,0.1
2019-01-18T09:19:20.027Z,0.3
2019-01-18T09:20:10.112Z,0.1
2019-01-18T09:21:00.697Z,0
2019-01-18T09:21:50.754Z,-0.1
2019-01-18T09:22:40.800Z,0.1
2019-01-18T09:23:30.874Z,0.3
2019-01-18T09:24:20.439Z,0.3
2019-01-18T09:25:10.986Z,0.3
2019-01-18T09:26:00.478Z,0.1
2019-01-18T09:26:51.093Z,0.2
2019-01-18T09:27:41.168Z,0.3
2019-01-18T09:28:30.648Z,0.3
2019-01-18T09:29:21.296Z,0.3
2019-01-18T09:30:10.783Z,0.2
2019-01-18T09:31:01.383Z,0.2
2019-01-18T09:31:51.168Z,0.1
2019-01-18T09:32:41.499Z,0.3
2019-01-18T09:33:31.558Z,0.3
2019-01-18T09:34:21.623Z,0.3
2019-01-18T09:35:11.101Z,0.1
2019-01-18T09:36:01.165Z,-0.1
2019-01-18T09:36:51.761Z,-0.1
2019-01-18T09:37:41.838Z,-0.1
2019-01-18T09:38:31.630Z,-0.3
2019-01-18T09:39:21.675Z,-0.3
2019-01-18T09:40:12.018Z,-0.1
2019-01-18T09:41:01.500Z,0.1
2019-01-18T09:41:52.128Z,0.4
2019-01-18T09:42:42.218Z,0.4
2019-01-18T09:43:31.685Z,0.6
2019-01-18T09:44:22.290Z,0.4
2019-01-18T09:45:12.352Z,0.4
2019-01-18T09:46:02.125Z,0.3
2019-01-18T09:46:52.465Z,0.2
2019-01-18T09:47:42.517Z,0.2
2019-01-18T09:48:32.297Z,0.4
2019-01-18T09:49:22.088Z,0.5
2019-01-18T09:50:12.452Z,0.4
2019-01-18T09:51:02.740Z,0.2
2019-01-18T09:51:52.802Z,0
2019-01-18T09:52:42.587Z,0
2019-01-18T09:53:32.929Z,0.1
2019-01-18T09:54:22.147Z,0.3
2019-01-18T09:55:12.746Z,0.2
2019-01-18T09:56:02.812Z,0.3
2019-01-18T09:56:52.872Z,0.4
2019-01-18T09:57:42.927Z,0.4
2019-01-18T09:58:32.996Z,0.4
2019-01-18T09:59:23.079Z,0.3
2019-01-18T10:00:13.387Z,0.1
2019-01-18T10:01:04.106Z,0.3
2019-01-18T10:01:52.667Z,0.4
2019-01-18T10:02:43.290Z,0.3
2019-01-18T10:03:33.601Z,0.3
2019-01-18T10:04:23.396Z,0.4
2019-01-18T10:05:13.449Z,0.4
2019-01-18T10:07:40.631Z,0.4
2019-01-18T10:08:31.153Z,0.3
2019-01-18T10:09:21.482Z,0.3
2019-01-18T10:10:10.771Z,0.4
2019-01-18T10:11:00.541Z,0.3
2019-01-18T10:11:51.368Z,0.6
2019-01-18T10:12:40.941Z,0.6
2019-01-18T10:13:32.997Z,0.6
2019-01-18T10:14:21.813Z,0.7
2019-01-18T10:15:10.925Z,0.9
2019-01-18T10:16:01.462Z,0.8
2019-01-18T10:16:51.235Z,1
2019-01-18T10:17:41.758Z,1.2
2019-01-18T10:18:31.340Z,1.3
2019-01-18T10:19:22.165Z,1.3
2019-01-18T10:20:11.938Z,1.1
2019-01-18T10:21:02.325Z,1.3
2019-01-18T10:21:51.810Z,1.3
2019-01-18T10:22:41.355Z,1.4
2019-01-18T10:23:31.423Z,1.3
2019-01-18T10:24:23.720Z,0.9
2019-01-18T10:25:12.598Z,1.1
2019-01-18T10:26:02.621Z,1.4
2019-01-18T10:26:52.659Z,1.6
2019-01-18T10:27:42.450Z,1.6
2019-01-18T10:28:32.231Z,1.6
2019-01-18T10:29:29.226Z,1.7
2019-01-18T10:30:12.907Z,1.9
2019-01-18T10:31:03.019Z,1.9
2019-01-18T10:31:58.889Z,1.7
2019-01-18T10:32:42.533Z,1.9
2019-01-18T10:33:33.139Z,1.9
2019-01-18T10:34:23.197Z,2.1
2019-01-18T10:35:13.249Z,2.3
2019-01-18T10:36:02.482Z,2.2
2019-01-18T10:36:53.081Z,2
2019-01-18T10:37:43.419Z,2.2
2019-01-18T10:38:33.477Z,2.3
2019-01-18T10:39:23.527Z,2.3
2019-01-18T10:40:13.586Z,2.4
2019-01-18T10:41:03.649Z,2.5
2019-01-18T10:41:53.439Z,2.7
2019-01-18T10:42:43.763Z,2.8
2019-01-18T10:43:33.539Z,2.8
2019-01-18T10:44:23.874Z,2.9
2019-01-18T10:45:13.664Z,2.7
2019-01-18T10:46:03.723Z,2.8
2019-01-18T10:46:53.211Z,2.8
2019-01-18T10:47:43.549Z,3
2019-01-18T10:48:34.229Z,3
2019-01-18T10:49:23.941Z,2.9
2019-01-18T10:50:13.769Z,2.7
2019-01-18T10:51:04.349Z,2.7
2019-01-18T10:51:54.126Z,2.8
2019-01-18T10:52:44.170Z,2.9
2019-01-18T10:53:34.272Z,2.9
2019-01-18T10:54:24.280Z,3.1
2019-01-18T10:55:14.631Z,3.1
2019-01-18T10:56:04.450Z,3.1
2019-01-18T10:56:54.168Z,3.1
2019-01-18T10:57:44.541Z,3.4
2019-01-18T10:58:34.866Z,3.3
2019-01-18T10:59:24.619Z,3.3
2019-01-18T11:00:14.688Z,3.2
2019-01-18T11:01:04.733Z,3.3
2019-01-18T11:02:08.540Z,3.4
2019-01-18T11:02:45.112Z,3.3
2019-01-18T11:03:34.880Z,3.2
2019-01-18T11:04:24.951Z,3.4
2019-01-18T11:05:15.292Z,3.4
2019-01-18T11:06:05.370Z,3.4
2019-01-18T11:06:55.132Z,3.4
2019-01-18T11:07:45.170Z,3.4
2019-01-18T11:08:35.224Z,3.1
2019-01-18T11:09:25.290Z,3.2
2019-01-18T11:10:15.338Z,3.1
2019-01-18T11:11:05.121Z,3.3
2019-01-18T11:11:55.457Z,3.4
2019-01-18T11:12:45.782Z,3.6
2019-01-18T11:13:35.849Z,3.5
2019-01-18T11:14:25.631Z,3.5
2019-01-18T11:15:15.684Z,3.2
2019-01-18T11:16:06.034Z,3.2
2019-01-18T11:16:55.880Z,3.3
2019-01-18T11:17:46.142Z,3.4
2019-01-18T11:18:36.187Z,3.4
2019-01-18T11:19:25.962Z,3.3
2019-01-18T11:20:16.030Z,3.4
2019-01-18T11:21:06.366Z,3.3
2019-01-18T11:21:56.130Z,3.3
2019-01-18T11:22:45.931Z,3.4
2019-01-18T11:23:36.536Z,3.6
2019-01-18T11:24:26.584Z,3.7
2019-01-18T11:25:17.447Z,3.9
2019-01-18T11:26:06.162Z,3.7
2019-01-18T11:26:56.482Z,3.6
2019-01-18T11:27:46.808Z,3.4
2019-01-18T11:28:36.389Z,3.5
2019-01-18T11:29:26.648Z,3.4
2019-01-18T11:30:17.006Z,3.3
2019-01-18T11:31:06.772Z,3.4
2019-01-18T11:31:57.095Z,3.6
2019-01-18T11:32:46.878Z,3.7
2019-01-18T11:33:36.968Z,3.6
2019-01-18T11:34:26.693Z,3.4
2019-01-18T11:35:17.365Z,3.3
2019-01-18T11:36:07.098Z,3.3
2019-01-18T11:37:00.406Z,3.3
2019-01-18T11:37:47.221Z,3.3
2019-01-18T11:38:37.275Z,3.4
2019-01-18T11:39:27.358Z,3.6
2019-01-18T11:40:17.105Z,3.5
2019-01-18T11:41:07.460Z,3.6
2019-01-18T11:41:57.505Z,3.8
2019-01-18T11:42:47.894Z,3.8
2019-01-18T11:43:37.345Z,3.6
2019-01-18T11:44:27.683Z,3.6
2019-01-18T11:45:18.050Z,3.5
2019-01-18T11:46:07.525Z,3.6
2019-01-18T11:46:57.853Z,3.6
2019-01-18T11:47:47.907Z,3.7
2019-01-18T11:48:38.252Z,3.6
2019-01-18T11:49:28.297Z,3.6
2019-01-18T11:50:18.348Z,3.8
2019-01-18T11:51:07.853Z,3.8
2019-01-18T11:51:58.485Z,3.9
2019-01-18T11:52:48.242Z,4
2019-01-18T11:53:38.316Z,4
2019-01-18T11:54:28.645Z,4
2019-01-18T11:55:18.448Z,4
2019-01-18T11:56:08.775Z,3.9
2019-01-18T11:56:58.559Z,4.1
2019-01-18T11:57:48.626Z,4.1
2019-01-18T11:58:38.654Z,4.2
2019-01-18T11:59:28.707Z,4.3
2019-01-18T12:00:18.772Z,4.3
2019-01-18T12:01:08.824Z,4.3
2019-01-18T12:01:58.866Z,4.3
2019-01-18T12:02:48.931Z,4.5
2019-01-18T12:03:39.259Z,4.4
2019-01-18T12:04:29.081Z,4.4
2019-01-18T12:05:19.419Z,4.4
2019-01-18T12:07:40.997Z,4.8
2019-01-18T12:08:31.327Z,4.7
2019-01-18T12:09:21.382Z,4.8
2019-01-18T12:10:11.436Z,4.7
2019-01-18T12:11:01.498Z,4.8
2019-01-18T12:11:51.533Z,4.3
2019-01-18T12:12:41.331Z,4.2
2019-01-18T12:13:31.386Z,4.4
2019-01-18T12:14:21.713Z,4.6
2019-01-18T12:15:11.496Z,4.4
2019-01-18T12:16:01.288Z,4.8
2019-01-18T12:16:51.623Z,4.9
2019-01-18T12:17:41.676Z,5.1
2019-01-18T12:18:31.733Z,4.6
2019-01-18T12:19:21.790Z,4.3
2019-01-18T12:20:11.841Z,4.6
2019-01-18T12:21:01.617Z,4.4
2019-01-18T12:21:51.675Z,4.6
2019-01-18T12:22:42.050Z,4.9
2019-01-18T12:23:32.338Z,5.1
2019-01-18T12:24:22.405Z,4.9
2019-01-18T12:25:12.469Z,5
2019-01-18T12:26:02.550Z,5.2
2019-01-18T12:26:52.567Z,5.2
2019-01-18T12:27:42.378Z,5.2
2019-01-18T12:28:32.415Z,5.2
2019-01-18T12:29:24.033Z,5.5
2019-01-18T12:30:12.800Z,5.1
2019-01-18T12:31:02.866Z,4.8
2019-01-18T12:31:52.647Z,4.8
2019-01-18T12:32:42.413Z,4.9
2019-01-18T12:33:32.745Z,5.1
2019-01-18T12:34:22.814Z,5.3
2019-01-18T12:35:12.313Z,5.4
2019-01-18T12:36:02.938Z,5.3
2019-01-18T12:37:00.871Z,5.6
2019-01-18T12:37:43.315Z,5.6
2019-01-18T12:38:32.343Z,5.7
2019-01-18T12:39:23.438Z,5.8
2019-01-18T12:40:13.205Z,5.5
2019-01-18T12:41:02.725Z,5.4
2019-01-18T12:41:53.340Z,5.4
2019-01-18T12:42:43.118Z,5.3
2019-01-18T12:43:33.443Z,5.1
2019-01-18T12:44:23.785Z,5.4
2019-01-18T12:45:13.002Z,5.2
2019-01-18T12:46:03.347Z,5.3
2019-01-18T12:46:53.412Z,5
2019-01-18T12:47:43.729Z,4.8
2019-01-18T12:48:33.237Z,4.6
2019-01-18T12:49:24.122Z,4.5
2019-01-18T12:50:14.177Z,4.5
2019-01-18T12:51:05.455Z,4.3
2019-01-18T12:51:54.022Z,4
2019-01-18T12:52:44.070Z,3.9
2019-01-18T12:53:34.125Z,4.2
2019-01-18T12:54:24.470Z,4.2
2019-01-18T12:55:14.512Z,4.4
2019-01-18T12:56:04.289Z,4.4
2019-01-18T12:56:54.342Z,4.8
2019-01-18T12:57:44.142Z,5.1
2019-01-18T12:58:34.479Z,4.9
2019-01-18T12:59:24.820Z,4.9
2019-01-18T13:00:14.908Z,4.9
2019-01-18T13:01:04.629Z,5
2019-01-18T13:01:54.714Z,5.1
2019-01-18T13:02:44.750Z,5.2
2019-01-18T13:03:34.812Z,5.3
2019-01-18T13:04:24.876Z,5.1
2019-01-18T13:05:14.709Z,5.1
2019-01-18T13:06:04.712Z,5.2
2019-01-18T13:06:55.098Z,5.3
2019-01-18T13:07:44.849Z,5.4
2019-01-18T13:08:36.481Z,5.3
2019-01-18T13:09:25.501Z,5.5
2019-01-18T13:10:15.076Z,5.6
2019-01-18T13:11:04.786Z,5.6
2019-01-18T13:11:55.686Z,5.5
2019-01-18T13:12:45.766Z,5.6
2019-01-18T13:13:35.236Z,5.4
2019-01-18T13:14:25.590Z,5.4
2019-01-18T13:15:15.360Z,5.1
2019-01-18T13:16:05.991Z,5.1
2019-01-18T13:16:56.030Z,5.3
2019-01-18T13:17:46.065Z,5.6
2019-01-18T13:18:35.871Z,5.3
2019-01-18T13:19:25.923Z,5.4
2019-01-18T13:20:15.695Z,5.2
2019-01-18T13:21:06.042Z,5.3
2019-01-18T13:21:55.793Z,4.9
2019-01-18T13:22:46.147Z,5.1
2019-01-18T13:23:36.482Z,5.4
2019-01-18T13:24:26.288Z,5.3
2019-01-18T13:25:16.058Z,5.2
2019-01-18T13:26:06.710Z,4.9
2019-01-18T13:26:56.443Z,5
2019-01-18T13:27:46.760Z,4.7
2019-01-18T13:28:36.525Z,4.4
2019-01-18T13:29:26.622Z,4.6
2019-01-18T13:30:16.949Z,4.8
2019-01-18T13:31:06.711Z,4.9
2019-01-18T13:31:57.065Z,4.8
2019-01-18T13:32:47.122Z,4.8
2019-01-18T13:33:37.167Z,5.1
2019-01-18T13:34:26.985Z,5.1
2019-01-18T13:35:16.267Z,5
2019-01-18T13:36:07.057Z,5.1
2019-01-18T13:36:57.144Z,5.1
2019-01-18T13:37:47.457Z,5.2
2019-01-18T13:38:37.239Z,5.1
2019-01-18T13:39:27.032Z,5.1
2019-01-18T13:40:17.374Z,5.1
2019-01-18T13:41:07.412Z,4.9
2019-01-18T13:41:57.223Z,4.8
2019-01-18T13:42:47.537Z,4.8
2019-01-18T13:43:37.907Z,4.7
2019-01-18T13:44:27.923Z,4.8
2019-01-18T13:45:17.431Z,4.7
2019-01-18T13:46:07.476Z,4.6
2019-01-18T13:46:57.811Z,4.4
2019-01-18T13:47:48.186Z,4.4
2019-01-18T13:48:37.931Z,4.5
2019-01-18T13:49:28.269Z,4.5
2019-01-18T13:50:18.321Z,4.4
2019-01-18T13:51:08.088Z,4.6
2019-01-18T13:51:58.147Z,4.4